Aérodrome :
LOGIN :

S'inscrire | Disclaimer

   EN    FR    IT 

 










Légende :    VFR   VFR Marginal   IFR   IFR Intensif   IFR Très Intensif
Visi : 
Plafond : 
>= 8 km
>= 3000ft
5 à 8 km
1000 à 3000 ft
1500m à 5 km
500 à 1000 ft
800 à 1500m
200 à 500 ft
< 800m
< 200 ft
Symboles :   Orages  Brouillard  Fortes neiges  Fortes précipitations  Vent > 20 kt
SIGMETs :   Divers  Orages  Givrage  Turbulence  Onde Orograph.  Cendres Volcan.







- Altitude de l'aérodrome : 220 ft
- Code IATA : CWL
- Voir les cartes d'approche


EGFF - Cardiff Rhoose

DERNIER METAR :
  • 252350Z AUTO 18006KT 150V220 9999 NCD 08/07 Q1004

METARs EXPIRÉS :
  • 252320Z AUTO 18004KT 9999 NCD 08/06 Q1004
  • 252250Z AUTO 19005KT 9999 NCD 07/06 Q1004
  • 252220Z AUTO 15004KT 9999 BKN033/// //////TCU 07/06 Q1003
  • 252150Z AUTO VRB01KT 9999 BKN034 08/05 Q1003
  • 252120Z AUTO 31003KT 9999 FEW035/// //////TCU 08/06 Q1003

TAF TAF EGFF
Valide du 26 à 00h jusqu'au 27 à 00h UTC


252304Z 2600/2624 16005KT 9999 FEW030
TEMPO 2607/2613 8000 -RA BKN012
BECMG 2608/2611 26017KT
PROB40
TEMPO 2608/2613 27020G30KT 4000 SHRA BKN008
BECMG 2615/2618 20012KT
TEMPO 2617/2621 7000 RA BKN012
BECMG 2619/2622 24023G33KT
TEMPO 2621/2624 7000 SHRA
PROB30
TEMPO 2623/2624 24028G43KT 4000 +SHRA BKN014 BKN020CB
ATIS : +44 1446 729 319
Pas de NOTAMs connus pour ce terrain.



MET'MAP, la Météo Aéronautique d'un coup d'oeil ! - Copyright ORBIFLY Décembre 2007 - Disclaimer

ORBIFLY MET'MAP TEAM :

Programmation & Développement : Alexandra Zaïnal
Conception & Développement : Baudouin d'Aumeries
Co-Programmation & Développement : Marc-Olivier Méhu
Soutien technique & logistique : Manuel Goepfert

Contact : metmap@orbifly.com




SOURCES & CREDITS :

   NOAA